Time;durP1;ratioP1;P1;durP2;ratioP2;P2;SDS_P1;SDS_P2;PMS_P1;PMS_P2;Temp;Humidity;BMP_temperature;BMP_pressure;BME280_temperature;BME280_humidity;BME280_pressure;Samples;Min_cycle;Max_cycle;Signal;HPM_P1;HPM_P2
2023/12/11 00:01:47;;;;;;;6.85;1.67;;;;;;;;;;7365957;19;20017;-76
2023/12/11 00:04:13;;;;;;;6.35;1.88;;;;;;;;;;7369862;19;20024;-76
2023/12/11 00:06:38;;;;;;;2.63;1.30;;;;;;;;;;7393703;19;20069;-76
2023/12/11 00:09:03;;;;;;;2.30;1.40;;;;;;;;;;7364726;19;20057;-76
2023/12/11 00:11:29;;;;;;;3.08;1.40;;;;;;;;;;7368039;19;20002;-76
2023/12/11 00:13:54;;;;;;;4.68;1.50;;;;;;;;;;7371398;19;20368;-76
2023/12/11 00:16:20;;;;;;;6.47;1.52;;;;;;;;;;7369043;19;20017;-76
2023/12/11 00:18:45;;;;;;;2.25;1.30;;;;;;;;;;7387172;19;19998;-76
2023/12/11 00:21:11;;;;;;;6.63;1.60;;;;;;;;;;7365186;19;20034;-76
2023/12/11 00:23:36;;;;;;;3.60;1.40;;;;;;;;;;7365015;19;20006;-76
2023/12/11 00:26:02;;;;;;;2.35;1.38;;;;;;;;;;7365931;19;20013;-76
2023/12/11 00:28:27;;;;;;;3.10;1.50;;;;;;;;;;7367836;19;20013;-76
2023/12/11 00:30:53;;;;;;;2.80;1.48;;;;;;;;;;7368208;19;20021;-76
2023/12/11 00:33:18;;;;;;;3.70;1.40;;;;;;;;;;7392440;19;19998;-76
2023/12/11 00:35:45;;;;;;;2.85;1.40;;;;;;;;;;7374765;19;20025;-76
2023/12/11 00:38:11;;;;;;;2.47;1.42;;;;;;;;;;7376342;19;20023;-76
2023/12/11 00:40:36;;;;;;;2.83;1.50;;;;;;;;;;7370494;19;20006;-76
2023/12/11 00:43:02;;;;;;;3.53;1.50;;;;;;;;;;7365294;19;19999;-76
2023/12/11 00:45:27;;;;;;;1.25;1.15;;;;;;;;;;7390089;19;20017;-76
2023/12/11 00:47:53;;;;;;;4.97;1.55;;;;;;;;;;7368449;19;20036;-76
2023/12/11 00:50:18;;;;;;;2.80;1.40;;;;;;;;;;7368040;19;20062;-76
2023/12/11 00:52:43;;;;;;;2.30;1.40;;;;;;;;;;7367944;19;20011;-76
2023/12/11 00:55:09;;;;;;;5.18;1.58;;;;;;;;;;7366683;19;20009;-76
2023/12/11 00:57:34;;;;;;;1.92;1.30;;;;;;;;;;7386532;19;19995;-76
2023/12/11 00:59:59;;;;;;;3.83;1.50;;;;;;;;;;7364673;19;20488;-76
2023/12/11 01:02:25;;;;;;;2.08;1.50;;;;;;;;;;7363818;19;20321;-76
2023/12/11 01:04:50;;;;;;;2.03;1.83;;;;;;;;;;7364662;19;20010;-76
2023/12/11 01:07:15;;;;;;;1.40;1.30;;;;;;;;;;7363737;19;20027;-76
2023/12/11 01:09:41;;;;;;;2.63;1.35;;;;;;;;;;7386475;19;20678;-76
2023/12/11 01:12:07;;;;;;;3.13;1.33;;;;;;;;;;7363797;19;20018;-76
2023/12/11 01:14:32;;;;;;;2.88;1.40;;;;;;;;;;7363777;19;20014;-76
2023/12/11 01:16:57;;;;;;;5.18;1.70;;;;;;;;;;7364033;19;20006;-76
2023/12/11 01:19:25;;;;;;;3.17;1.40;;;;;;;;;;7363683;19;20007;-76
2023/12/11 01:21:51;;;;;;;4.20;1.70;;;;;;;;;;7370415;19;20078;-76
2023/12/11 01:24:16;;;;;;;3.38;1.40;;;;;;;;;;7390436;19;20472;-76
2023/12/11 01:26:41;;;;;;;2.13;1.40;;;;;;;;;;7369913;19;20008;-76
2023/12/11 01:29:07;;;;;;;3.75;1.38;;;;;;;;;;7370964;19;20018;-76
2023/12/11 01:31:32;;;;;;;3.15;1.60;;;;;;;;;;7372481;19;20010;-76
2023/12/11 01:33:58;;;;;;;3.97;1.50;;;;;;;;;;7371149;19;20013;-76
2023/12/11 01:36:23;;;;;;;2.67;1.63;;;;;;;;;;7401738;19;20066;-76
2023/12/11 01:38:50;;;;;;;3.45;1.30;;;;;;;;;;7383279;19;20014;-76
2023/12/11 01:41:16;;;;;;;1.75;1.35;;;;;;;;;;7379555;19;20283;-77
2023/12/11 01:43:41;;;;;;;2.97;1.30;;;;;;;;;;7376313;19;20016;-76
2023/12/11 01:46:11;;;;;;;5.10;1.58;;;;;;;;;;7375899;19;20483;-76
2023/12/11 01:48:37;;;;;;;4.13;1.48;;;;;;;;;;7392335;19;20003;-76
2023/12/11 01:51:03;;;;;;;3.55;1.52;;;;;;;;;;7369633;19;20006;-77
2023/12/11 01:53:29;;;;;;;3.22;1.25;;;;;;;;;;7366954;19;20010;-76
2023/12/11 01:55:54;;;;;;;2.05;1.33;;;;;;;;;;7367036;19;20025;-76
2023/12/11 01:58:21;;;;;;;6.88;1.70;;;;;;;;;;7368598;19;20008;-76
2023/12/11 02:00:47;;;;;;;2.38;1.50;;;;;;;;;;7381457;19;20002;-76
2023/12/11 02:03:12;;;;;;;2.88;1.55;;;;;;;;;;7384758;19;20547;-77
2023/12/11 02:05:38;;;;;;;2.38;1.35;;;;;;;;;;7369250;19;20473;-76
2023/12/11 02:08:04;;;;;;;3.03;1.40;;;;;;;;;;7369939;19;20011;-76
2023/12/11 02:10:29;;;;;;;2.47;1.40;;;;;;;;;;7369475;19;20014;-76
2023/12/11 02:12:54;;;;;;;4.88;1.50;;;;;;;;;;7369877;19;20518;-77
2023/12/11 02:15:40;;;;;;;5.97;1.60;;;;;;;;;;7392375;19;20003;-76
2023/12/11 02:18:06;;;;;;;2.80;1.70;;;;;;;;;;7369581;19;20026;-76
2023/12/11 02:20:32;;;;;;;2.72;1.50;;;;;;;;;;7369440;19;20006;-76
2023/12/11 02:23:00;;;;;;;4.25;1.50;;;;;;;;;;7368277;19;19999;-77
2023/12/11 02:25:28;;;;;;;2.58;1.55;;;;;;;;;;7369199;19;20109;-77
2023/12/11 02:27:53;;;;;;;4.03;1.80;;;;;;;;;;7368638;19;20002;-77
2023/12/11 02:30:18;;;;;;;2.83;1.60;;;;;;;;;;7391584;19;19998;-77
2023/12/11 02:32:44;;;;;;;6.93;2.00;;;;;;;;;;7366087;19;20009;-76
2023/12/11 02:35:09;;;;;;;7.82;1.70;;;;;;;;;;7369542;19;20048;-77
2023/12/11 02:37:34;;;;;;;4.28;1.90;;;;;;;;;;7369334;19;20030;-77
2023/12/11 02:40:00;;;;;;;7.07;1.83;;;;;;;;;;7370035;19;19998;-77
2023/12/11 02:42:25;;;;;;;5.00;1.80;;;;;;;;;;7390993;19;20177;-76
2023/12/11 02:44:51;;;;;;;3.38;1.60;;;;;;;;;;7370921;19;20045;-77
2023/12/11 02:47:16;;;;;;;5.30;1.80;;;;;;;;;;7374136;19;20479;-76
2023/12/11 02:49:41;;;;;;;5.75;1.63;;;;;;;;;;7392492;19;19994;-76
2023/12/11 02:52:07;;;;;;;3.72;2.13;;;;;;;;;;7374422;19;20938;-76
2023/12/11 02:54:32;;;;;;;4.90;1.63;;;;;;;;;;7389552;19;20702;-77
2023/12/11 02:56:57;;;;;;;7.63;1.98;;;;;;;;;;7372159;19;20264;-76
2023/12/11 02:59:23;;;;;;;5.95;1.70;;;;;;;;;;7377086;19;20006;-77
2023/12/11 03:01:48;;;;;;;5.53;1.60;;;;;;;;;;7375308;19;20014;-76
2023/12/11 03:04:13;;;;;;;5.10;1.63;;;;;;;;;;7369674;19;20002;-77
2023/12/11 03:06:39;;;;;;;6.80;2.10;;;;;;;;;;7390447;19;20006;-76
2023/12/11 03:09:05;;;;;;;6.55;1.80;;;;;;;;;;7368079;19;20009;-76
2023/12/11 03:11:30;;;;;;;7.72;1.80;;;;;;;;;;7367715;19;20010;-77
2023/12/11 03:13:56;;;;;;;5.15;1.60;;;;;;;;;;7368092;19;20013;-76
2023/12/11 03:16:21;;;;;;;7.07;1.63;;;;;;;;;;7366298;19;20006;-76
2023/12/11 03:18:46;;;;;;;7.47;1.73;;;;;;;;;;7378848;19;20416;-76
2023/12/11 03:21:12;;;;;;;6.10;1.73;;;;;;;;;;7383092;19;20002;-76
2023/12/11 03:23:38;;;;;;;5.95;1.75;;;;;;;;;;7367280;19;20007;-76
2023/12/11 03:26:03;;;;;;;6.63;1.85;;;;;;;;;;7367657;19;20040;-76
2023/12/11 03:28:29;;;;;;;6.47;2.03;;;;;;;;;;7367654;19;20010;-76
2023/12/11 03:30:54;;;;;;;7.00;1.90;;;;;;;;;;7367665;19;19999;-76
2023/12/11 03:33:19;;;;;;;3.63;1.50;;;;;;;;;;7387909;19;20038;-76
2023/12/11 03:35:45;;;;;;;4.43;1.52;;;;;;;;;;7367964;19;20067;-76
2023/12/11 03:38:10;;;;;;;7.30;1.80;;;;;;;;;;7368421;19;20060;-76
2023/12/11 03:40:36;;;;;;;6.95;1.83;;;;;;;;;;7366964;19;20003;-76
2023/12/11 03:43:01;;;;;;;5.63;1.50;;;;;;;;;;7365970;19;20009;-76
2023/12/11 03:45:26;;;;;;;6.38;1.58;;;;;;;;;;7396478;19;20002;-76
2023/12/11 03:47:52;;;;;;;4.90;1.60;;;;;;;;;;7379323;19;20011;-76
2023/12/11 03:50:17;;;;;;;4.80;1.60;;;;;;;;;;7381294;19;20437;-76
2023/12/11 03:52:42;;;;;;;7.28;1.70;;;;;;;;;;7381029;19;20014;-76
2023/12/11 03:55:08;;;;;;;2.50;1.48;;;;;;;;;;7370920;19;20479;-75
2023/12/11 03:57:33;;;;;;;5.28;1.50;;;;;;;;;;7387894;19;20037;-76
2023/12/11 03:59:58;;;;;;;5.22;1.55;;;;;;;;;;7365850;19;20028;-76
2023/12/11 04:02:24;;;;;;;8.32;1.77;;;;;;;;;;7364361;19;20010;-76
2023/12/11 04:04:49;;;;;;;4.45;1.83;;;;;;;;;;7365655;19;20396;-76
2023/12/11 04:07:15;;;;;;;4.68;1.85;;;;;;;;;;7366023;19;20006;-76
2023/12/11 04:09:40;;;;;;;6.88;2.10;;;;;;;;;;7387194;19;20042;-76
2023/12/11 04:12:05;;;;;;;7.47;1.92;;;;;;;;;;7365851;19;20006;-76
2023/12/11 04:14:31;;;;;;;3.72;1.50;;;;;;;;;;7365539;19;20026;-76
2023/12/11 04:16:56;;;;;;;6.82;1.73;;;;;;;;;;7364850;19;20480;-76
2023/12/11 04:19:22;;;;;;;7.75;2.03;;;;;;;;;;7365087;19;20036;-76
2023/12/11 04:21:47;;;;;;;6.90;1.80;;;;;;;;;;7370711;19;19998;-76
2023/12/11 04:24:12;;;;;;;7.60;1.80;;;;;;;;;;7382632;19;20425;-76
2023/12/11 04:26:38;;;;;;;8.93;1.80;;;;;;;;;;7363496;19;20069;-76
2023/12/11 04:29:03;;;;;;;13.68;2.22;;;;;;;;;;7366126;19;20014;-76
2023/12/11 04:31:28;;;;;;;10.27;2.58;;;;;;;;;;7366077;19;20006;-76
2023/12/11 04:33:54;;;;;;;8.55;1.80;;;;;;;;;;7363282;19;20020;-76
2023/12/11 04:36:19;;;;;;;8.00;2.25;;;;;;;;;;7386896;19;20003;-76
2023/12/11 04:38:44;;;;;;;10.77;2.28;;;;;;;;;;7365448;19;19994;-76
2023/12/11 04:41:10;;;;;;;7.57;2.10;;;;;;;;;;7364616;19;20006;-76
2023/12/11 04:43:36;;;;;;;10.45;2.13;;;;;;;;;;7365581;19;20111;-76
2023/12/11 04:46:01;;;;;;;8.38;1.98;;;;;;;;;;7364200;19;20025;-76
2023/12/11 04:48:27;;;;;;;7.47;2.17;;;;;;;;;;7388838;19;20094;-76
2023/12/11 04:50:52;;;;;;;6.93;2.20;;;;;;;;;;7375563;19;20006;-76
2023/12/11 04:53:18;;;;;;;15.35;2.30;;;;;;;;;;7376599;19;20014;-76
2023/12/11 04:55:43;;;;;;;11.98;2.05;;;;;;;;;;7374605;19;20003;-76
2023/12/11 04:58:08;;;;;;;8.60;1.90;;;;;;;;;;7377628;19;20448;-76
2023/12/11 05:00:34;;;;;;;7.88;2.10;;;;;;;;;;7396484;19;20011;-76
2023/12/11 05:02:59;;;;;;;8.90;2.08;;;;;;;;;;7364626;19;20058;-76
2023/12/11 05:05:24;;;;;;;10.50;2.03;;;;;;;;;;7364335;19;20074;-76
2023/12/11 05:07:50;;;;;;;6.32;1.80;;;;;;;;;;7365353;19;20007;-76
2023/12/11 05:10:15;;;;;;;9.40;2.30;;;;;;;;;;7365841;19;20009;-76
2023/12/11 05:12:40;;;;;;;8.50;2.30;;;;;;;;;;7385711;19;19999;-76
2023/12/11 05:15:06;;;;;;;10.30;2.30;;;;;;;;;;7365115;19;20009;-76
2023/12/11 05:17:31;;;;;;;12.05;2.50;;;;;;;;;;7362414;19;20006;-76
2023/12/11 05:19:57;;;;;;;13.10;2.40;;;;;;;;;;7364694;19;20106;-76
2023/12/11 05:22:22;;;;;;;7.65;2.20;;;;;;;;;;7363261;19;20031;-76
2023/12/11 05:24:50;;;;;;;8.23;2.00;;;;;;;;;;7364206;19;19998;-76
2023/12/11 05:27:15;;;;;;;11.00;1.98;;;;;;;;;;7387177;19;20699;-76
2023/12/11 05:29:41;;;;;;;7.53;2.17;;;;;;;;;;7365001;19;20003;-76
2023/12/11 05:32:06;;;;;;;8.50;2.30;;;;;;;;;;7359714;19;20009;-76
2023/12/11 05:34:31;;;;;;;9.70;1.98;;;;;;;;;;7361484;19;20013;-77
2023/12/11 05:36:57;;;;;;;11.73;2.53;;;;;;;;;;7361513;19;20003;-76
2023/12/11 05:39:22;;;;;;;14.65;2.92;;;;;;;;;;7383763;19;20028;-77
2023/12/11 05:41:48;;;;;;;7.53;1.88;;;;;;;;;;7360934;19;20022;-76
2023/12/11 05:44:13;;;;;;;8.82;2.00;;;;;;;;;;7363002;19;19998;-76
2023/12/11 05:46:38;;;;;;;9.90;1.92;;;;;;;;;;7360943;19;20010;-75
2023/12/11 05:49:04;;;;;;;12.98;2.42;;;;;;;;;;7363245;19;20495;-76
2023/12/11 05:51:29;;;;;;;7.20;1.77;;;;;;;;;;7384187;19;20010;-76
2023/12/11 05:53:58;;;;;;;8.30;2.08;;;;;;;;;;7359619;19;20018;-76
2023/12/11 05:56:23;;;;;;;8.02;2.00;;;;;;;;;;7360828;19;20453;-76
2023/12/11 05:58:50;;;;;;;9.07;1.92;;;;;;;;;;7364285;19;20044;-75
2023/12/11 06:01:15;;;;;;;11.35;2.60;;;;;;;;;;7363943;19;20003;-75
2023/12/11 06:03:41;;;;;;;11.10;2.45;;;;;;;;;;7386708;19;20025;-77
2023/12/11 06:06:17;;;;;;;13.18;2.45;;;;;;;;;;7363999;19;20042;-75
2023/12/11 06:08:43;;;;;;;8.30;2.22;;;;;;;;;;7370521;19;20002;-77
2023/12/11 06:11:12;;;;;;;9.90;2.10;;;;;;;;;;7369149;19;20732;-77
2023/12/11 06:13:38;;;;;;;8.05;2.50;;;;;;;;;;7352038;19;20500;-76
2023/12/11 06:16:04;;;;;;;8.65;2.38;;;;;;;;;;7365616;19;20011;-78
2023/12/11 06:18:29;;;;;;;9.68;2.35;;;;;;;;;;7398610;19;20006;-77
2023/12/11 06:20:58;;;;;;;10.48;2.58;;;;;;;;;;7356917;19;20779;-77
2023/12/11 06:23:23;;;;;;;8.65;2.72;;;;;;;;;;7365063;19;20360;-77
2023/12/11 06:25:48;;;;;;;11.13;2.67;;;;;;;;;;7359553;19;20090;-77
2023/12/11 06:28:13;;;;;;;9.13;2.40;;;;;;;;;;7360705;19;20010;-77
2023/12/11 06:30:39;;;;;;;11.80;2.95;;;;;;;;;;7389448;19;19999;-77
2023/12/11 06:33:05;;;;;;;10.52;2.85;;;;;;;;;;7367125;19;20010;-77
2023/12/11 06:35:30;;;;;;;6.53;2.67;;;;;;;;;;7368083;19;20026;-77
2023/12/11 06:37:55;;;;;;;14.25;2.78;;;;;;;;;;7368564;19;20030;-77
2023/12/11 06:40:21;;;;;;;10.95;2.90;;;;;;;;;;7355450;19;20014;-77
2023/12/11 06:42:46;;;;;;;7.40;2.90;;;;;;;;;;7378804;19;20006;-77
2023/12/11 06:45:12;;;;;;;8.15;2.72;;;;;;;;;;7378227;19;19995;-75
2023/12/11 06:47:37;;;;;;;8.43;3.00;;;;;;;;;;7366068;19;20010;-77
2023/12/11 06:50:03;;;;;;;8.43;2.72;;;;;;;;;;7373965;19;20065;-77
2023/12/11 06:52:29;;;;;;;8.25;2.88;;;;;;;;;;7370848;19;20030;-77
2023/12/11 06:54:54;;;;;;;6.43;2.53;;;;;;;;;;7366234;19;20010;-76
2023/12/11 06:57:20;;;;;;;14.98;2.85;;;;;;;;;;7386691;19;20002;-76
2023/12/11 06:59:46;;;;;;;12.60;3.00;;;;;;;;;;7368072;19;20002;-77
2023/12/11 07:02:11;;;;;;;10.80;2.83;;;;;;;;;;7364776;19;20495;-76
2023/12/11 07:04:40;;;;;;;8.32;3.40;;;;;;;;;;7364683;19;20032;-76
2023/12/11 07:07:06;;;;;;;9.10;2.97;;;;;;;;;;7365916;19;20002;-76
2023/12/11 07:09:32;;;;;;;10.15;2.95;;;;;;;;;;7388107;19;20325;-75
2023/12/11 07:11:57;;;;;;;7.70;2.70;;;;;;;;;;7365724;19;20026;-75
2023/12/11 07:14:24;;;;;;;6.75;2.33;;;;;;;;;;7365909;19;20030;-77
2023/12/11 07:16:49;;;;;;;6.28;2.50;;;;;;;;;;7365430;19;19999;-76
2023/12/11 07:19:15;;;;;;;6.88;2.30;;;;;;;;;;7365539;19;20017;-76
2023/12/11 07:21:42;;;;;;;8.10;2.45;;;;;;;;;;7386692;19;19994;-76
2023/12/11 07:24:08;;;;;;;6.65;1.83;;;;;;;;;;7363625;19;20028;-76
2023/12/11 07:26:33;;;;;;;7.72;2.13;;;;;;;;;;7365034;19;20006;-76
2023/12/11 07:29:00;;;;;;;8.07;1.90;;;;;;;;;;7366532;19;20006;-75
2023/12/11 07:31:25;;;;;;;5.55;1.85;;;;;;;;;;7371710;19;20308;-75
2023/12/11 07:33:50;;;;;;;5.25;2.00;;;;;;;;;;7363854;19;20034;-76
2023/12/11 07:36:16;;;;;;;6.13;1.92;;;;;;;;;;7387292;19;20527;-77
2023/12/11 07:38:41;;;;;;;5.28;2.00;;;;;;;;;;7364097;19;20010;-76
2023/12/11 07:41:07;;;;;;;5.72;1.95;;;;;;;;;;7362955;19;20005;-75
2023/12/11 07:43:32;;;;;;;6.72;1.90;;;;;;;;;;7366080;19;20018;-75
2023/12/11 07:45:58;;;;;;;6.82;2.10;;;;;;;;;;7364761;19;20488;-75
2023/12/11 07:48:23;;;;;;;4.40;1.60;;;;;;;;;;7385650;19;20364;-75
2023/12/11 07:50:48;;;;;;;5.85;2.03;;;;;;;;;;7364501;19;20099;-75
2023/12/11 07:53:14;;;;;;;4.82;1.88;;;;;;;;;;7364683;19;20111;-75
2023/12/11 07:55:39;;;;;;;7.38;1.83;;;;;;;;;;7364610;19;20018;-77
2023/12/11 07:58:06;;;;;;;6.57;1.90;;;;;;;;;;7364521;19;20002;-75
2023/12/11 08:00:32;;;;;;;7.80;2.30;;;;;;;;;;7387664;19;20900;-77
2023/12/11 08:02:57;;;;;;;7.80;2.60;;;;;;;;;;7366155;19;20007;-77
2023/12/11 08:05:23;;;;;;;11.10;2.15;;;;;;;;;;7373910;19;20003;-76
2023/12/11 08:07:48;;;;;;;5.13;1.80;;;;;;;;;;7374925;19;20010;-77
2023/12/11 08:10:13;;;;;;;9.50;1.95;;;;;;;;;;7376008;19;20081;-76
2023/12/11 08:12:39;;;;;;;6.45;2.03;;;;;;;;;;7396985;19;20007;-76
2023/12/11 08:15:05;;;;;;;13.07;2.35;;;;;;;;;;7372744;19;20006;-76
2023/12/11 08:17:31;;;;;;;8.95;1.70;;;;;;;;;;7365435;19;20091;-76
2023/12/11 08:19:56;;;;;;;10.75;2.20;;;;;;;;;;7363418;19;20056;-76
2023/12/11 08:22:22;;;;;;;7.93;2.15;;;;;;;;;;7366888;19;20007;-76
2023/12/11 08:24:47;;;;;;;7.65;1.70;;;;;;;;;;7380403;19;20011;-76
2023/12/11 08:27:13;;;;;;;6.07;2.17;;;;;;;;;;7383835;19;20009;-76
2023/12/11 08:29:38;;;;;;;8.23;1.92;;;;;;;;;;7363718;19;20082;-76
2023/12/11 08:32:03;;;;;;;6.97;1.88;;;;;;;;;;7366971;19;20436;-76
2023/12/11 08:34:29;;;;;;;12.48;2.50;;;;;;;;;;7362835;19;20015;-76
2023/12/11 08:36:55;;;;;;;9.23;2.20;;;;;;;;;;7368842;19;19998;-77
2023/12/11 08:39:21;;;;;;;5.78;1.90;;;;;;;;;;7406476;19;20030;-77
2023/12/11 08:41:48;;;;;;;12.20;2.35;;;;;;;;;;7381808;19;19998;-75
2023/12/11 08:44:13;;;;;;;9.13;2.00;;;;;;;;;;7367558;19;20117;-75
2023/12/11 08:46:39;;;;;;;9.82;2.45;;;;;;;;;;7355167;19;20776;-75
2023/12/11 08:49:04;;;;;;;18.13;6.70;;;;;;;;;;7361714;19;20021;-76
2023/12/11 08:51:30;;;;;;;12.30;2.35;;;;;;;;;;7383519;19;20066;-75
2023/12/11 08:53:55;;;;;;;9.43;2.30;;;;;;;;;;7361065;19;20066;-76
2023/12/11 08:56:20;;;;;;;10.77;2.20;;;;;;;;;;7362565;19;20006;-75
2023/12/11 08:58:49;;;;;;;12.75;2.55;;;;;;;;;;7365159;19;20074;-76
2023/12/11 09:01:14;;;;;;;10.60;2.25;;;;;;;;;;7366393;19;20443;-76
2023/12/11 09:03:40;;;;;;;10.07;2.10;;;;;;;;;;7373363;19;20114;-75
2023/12/11 09:06:05;;;;;;;8.00;2.05;;;;;;;;;;7364711;19;20064;-75
2023/12/11 09:08:30;;;;;;;11.88;2.38;;;;;;;;;;7368217;19;20090;-76
2023/12/11 09:10:56;;;;;;;9.70;2.30;;;;;;;;;;7374018;19;20009;-75
2023/12/11 09:13:22;;;;;;;10.68;2.47;;;;;;;;;;7374804;19;19999;-77
2023/12/11 09:15:47;;;;;;;9.57;2.10;;;;;;;;;;7380896;19;19997;-76
2023/12/11 09:18:13;;;;;;;8.23;2.35;;;;;;;;;;7393592;19;19990;-75
2023/12/11 09:20:38;;;;;;;10.88;2.72;;;;;;;;;;7368027;19;20480;-75
2023/12/11 09:23:04;;;;;;;9.63;2.55;;;;;;;;;;7369074;19;20006;-75
2023/12/11 09:25:29;;;;;;;11.32;2.40;;;;;;;;;;7366323;19;20066;-77
2023/12/11 09:27:55;;;;;;;10.68;3.00;;;;;;;;;;7365539;19;20389;-74
2023/12/11 09:30:20;;;;;;;6.93;2.13;;;;;;;;;;7386937;19;19990;-75
2023/12/11 09:32:46;;;;;;;12.05;2.72;;;;;;;;;;7362257;19;19999;-75
2023/12/11 09:35:13;;;;;;;8.95;2.30;;;;;;;;;;7365348;19;20016;-76
2023/12/11 09:37:38;;;;;;;10.82;2.50;;;;;;;;;;7363529;19;20008;-76
2023/12/11 09:40:06;;;;;;;10.10;2.60;;;;;;;;;;7367641;19;20409;-75
2023/12/11 09:42:34;;;;;;;10.27;2.25;;;;;;;;;;7406474;19;20020;-75
2023/12/11 09:44:59;;;;;;;11.15;2.50;;;;;;;;;;7385096;19;20018;-75
2023/12/11 09:47:43;;;;;;;8.82;2.35;;;;;;;;;;7384238;19;20058;-75
2023/12/11 09:50:09;;;;;;;12.68;2.72;;;;;;;;;;7389567;19;20011;-76
2023/12/11 09:52:39;;;;;;;13.20;5.28;;;;;;;;;;7383340;19;20398;-75
2023/12/11 09:55:06;;;;;;;12.75;3.03;;;;;;;;;;7384248;19;20025;-75
2023/12/11 09:57:32;;;;;;;11.13;2.67;;;;;;;;;;7405722;19;20677;-75
2023/12/11 09:59:58;;;;;;;12.15;2.70;;;;;;;;;;7390106;19;20038;-75
2023/12/11 10:02:25;;;;;;;10.88;3.10;;;;;;;;;;7389948;19;20029;-76
2023/12/11 10:05:02;;;;;;;9.43;2.35;;;;;;;;;;7385394;19;20033;-75
2023/12/11 10:07:27;;;;;;;9.25;2.65;;;;;;;;;;7379397;19;20003;-75
2023/12/11 10:09:52;;;;;;;8.75;2.30;;;;;;;;;;7374967;19;19994;-75
2023/12/11 10:12:18;;;;;;;12.52;2.75;;;;;;;;;;7394788;19;20344;-75
2023/12/11 10:14:59;;;;;;;12.00;2.90;;;;;;;;;;7372925;19;20568;-76
2023/12/11 10:17:25;;;;;;;12.18;2.85;;;;;;;;;;7374380;19;20052;-76
2023/12/11 10:19:50;;;;;;;9.88;2.70;;;;;;;;;;7372701;19;20249;-76
2023/12/11 10:22:31;;;;;;;14.07;2.97;;;;;;;;;;7370380;19;20041;-76
2023/12/11 10:24:58;;;;;;;13.07;2.85;;;;;;;;;;7370822;19;20099;-77
2023/12/11 10:27:24;;;;;;;8.90;2.38;;;;;;;;;;7392966;19;20002;-77
2023/12/11 10:30:14;;;;;;;12.93;2.85;;;;;;;;;;7369686;19;20039;-77
2023/12/11 10:32:40;;;;;;;11.57;2.15;;;;;;;;;;7369042;19;20360;-76
2023/12/11 10:35:06;;;;;;;14.43;2.67;;;;;;;;;;7368780;19;20086;-76
2023/12/11 10:37:34;;;;;;;13.23;2.80;;;;;;;;;;7367904;19;20003;-74
2023/12/11 10:40:02;;;;;;;12.98;2.58;;;;;;;;;;7373638;19;19995;-75
2023/12/11 10:42:27;;;;;;;14.60;3.35;;;;;;;;;;7392427;19;20031;-75
2023/12/11 10:44:54;;;;;;;16.40;2.97;;;;;;;;;;7367945;19;20014;-75
2023/12/11 10:47:20;;;;;;;10.45;2.50;;;;;;;;;;7367531;19;20010;-75
2023/12/11 10:49:45;;;;;;;9.07;2.20;;;;;;;;;;7367122;19;20002;-75
2023/12/11 10:52:12;;;;;;;13.60;2.72;;;;;;;;;;7367773;19;20015;-75
2023/12/11 10:54:38;;;;;;;12.60;2.80;;;;;;;;;;7372384;19;20018;-77
2023/12/11 10:57:07;;;;;;;15.70;2.58;;;;;;;;;;7366640;19;20010;-75
2023/12/11 10:59:34;;;;;;;10.63;2.38;;;;;;;;;;7367032;19;20391;-75
2023/12/11 11:02:02;;;;;;;13.48;2.20;;;;;;;;;;7367185;19;20018;-75
2023/12/11 11:04:32;;;;;;;15.07;2.60;;;;;;;;;;7366179;19;20069;-75
2023/12/11 11:07:10;;;;;;;16.80;2.38;;;;;;;;;;7372807;19;20070;-76
2023/12/11 11:09:54;;;;;;;10.95;2.40;;;;;;;;;;7398504;19;20007;-75
2023/12/11 11:12:34;;;;;;;11.73;2.58;;;;;;;;;;7381730;19;20009;-75
2023/12/11 11:14:59;;;;;;;11.93;3.03;;;;;;;;;;7378330;19;20055;-76
2023/12/11 11:17:45;;;;;;;11.98;2.15;;;;;;;;;;7376439;19;20134;-76
2023/12/11 11:20:12;;;;;;;7.82;1.92;;;;;;;;;;7367380;19;20006;-75
2023/12/11 11:22:38;;;;;;;10.75;2.72;;;;;;;;;;7373361;19;20009;-75
2023/12/11 11:25:28;;;;;;;12.60;2.65;;;;;;;;;;7379031;19;20002;-75
2023/12/11 11:27:54;;;;;;;10.48;2.25;;;;;;;;;;7378135;19;20011;-76
2023/12/11 11:30:51;;;;;;;11.85;2.45;;;;;;;;;;7397268;19;20533;-76
2023/12/11 11:33:16;;;;;;;13.05;3.58;;;;;;;;;;7369746;19;20002;-76
2023/12/11 11:35:44;;;;;;;9.82;2.70;;;;;;;;;;7363834;19;20048;-75
2023/12/11 11:38:10;;;;;;;11.85;2.85;;;;;;;;;;7367671;19;19998;-75
2023/12/11 11:40:36;;;;;;;13.43;2.80;;;;;;;;;;7366800;19;20559;-75
2023/12/11 11:43:09;;;;;;;16.17;2.53;;;;;;;;;;7366032;19;20371;-75
2023/12/11 11:45:34;;;;;;;17.13;3.03;;;;;;;;;;7386635;19;19999;-76
2023/12/11 11:48:00;;;;;;;9.90;2.22;;;;;;;;;;7366190;19;20019;-76
2023/12/11 11:50:25;;;;;;;9.68;2.10;;;;;;;;;;7365607;19;20046;-76
2023/12/11 11:52:58;;;;;;;10.68;1.98;;;;;;;;;;7364626;19;20000;-75
2023/12/11 11:55:26;;;;;;;10.32;2.47;;;;;;;;;;7364032;19;20005;-75
2023/12/11 11:57:52;;;;;;;9.88;2.38;;;;;;;;;;7365708;19;20002;-77
2023/12/11 12:00:31;;;;;;;11.55;2.00;;;;;;;;;;7388127;19;20043;-75
2023/12/11 12:02:57;;;;;;;8.80;2.40;;;;;;;;;;7364347;19;20006;-75
2023/12/11 12:05:22;;;;;;;15.82;3.30;;;;;;;;;;7363257;19;20041;-76
2023/12/11 12:07:49;;;;;;;9.82;2.20;;;;;;;;;;7364130;19;20002;-75
2023/12/11 12:10:16;;;;;;;9.85;2.25;;;;;;;;;;7363044;19;20365;-75
2023/12/11 12:12:42;;;;;;;13.77;2.10;;;;;;;;;;7386407;19;19999;-77
2023/12/11 12:15:08;;;;;;;12.25;2.40;;;;;;;;;;7366858;19;20081;-76
2023/12/11 12:17:34;;;;;;;8.90;2.25;;;;;;;;;;7364864;19;20009;-77
2023/12/11 12:19:59;;;;;;;11.85;2.33;;;;;;;;;;7370903;19;19995;-78
2023/12/11 12:22:24;;;;;;;10.57;1.88;;;;;;;;;;7368079;19;20006;-78
2023/12/11 12:24:51;;;;;;;11.52;2.25;;;;;;;;;;7366576;19;20118;-77
2023/12/11 12:27:23;;;;;;;10.35;2.20;;;;;;;;;;7386143;19;20480;-77
2023/12/11 12:29:50;;;;;;;12.35;2.70;;;;;;;;;;7366799;19;20025;-77
2023/12/11 12:32:16;;;;;;;13.88;2.97;;;;;;;;;;7369123;19;20040;-77
2023/12/11 12:34:45;;;;;;;11.13;2.05;;;;;;;;;;7369587;19;20010;-78
2023/12/11 12:37:13;;;;;;;12.70;2.55;;;;;;;;;;7369880;19;20014;-77
2023/12/11 12:39:38;;;;;;;9.77;2.13;;;;;;;;;;7392066;19;20002;-76
2023/12/11 12:42:04;;;;;;;12.07;2.33;;;;;;;;;;7363810;19;20345;-76
2023/12/11 12:44:29;;;;;;;12.93;2.67;;;;;;;;;;7364381;19;20014;-77
2023/12/11 12:47:00;;;;;;;9.65;2.33;;;;;;;;;;7365626;19;20017;-77
2023/12/11 12:49:26;;;;;;;9.07;1.95;;;;;;;;;;7376502;19;20021;-76
2023/12/11 12:51:53;;;;;;;10.02;2.08;;;;;;;;;;7370007;19;20372;-77
2023/12/11 12:54:21;;;;;;;13.60;2.25;;;;;;;;;;7385705;19;20090;-76
2023/12/11 12:56:55;;;;;;;7.35;1.73;;;;;;;;;;7362769;19;20002;-77
2023/12/11 12:59:23;;;;;;;9.68;2.53;;;;;;;;;;7365605;19;20213;-76
2023/12/11 13:01:49;;;;;;;9.98;2.30;;;;;;;;;;7366075;19;20430;-76
2023/12/11 13:04:15;;;;;;;13.35;4.05;;;;;;;;;;7368117;19;20023;-78
2023/12/11 13:06:41;;;;;;;13.27;4.28;;;;;;;;;;7384407;19;19994;-76
2023/12/11 13:09:08;;;;;;;13.50;3.20;;;;;;;;;;7361047;19;20068;-76
2023/12/11 13:11:40;;;;;;;14.75;2.50;;;;;;;;;;7361709;19;20022;-76
2023/12/11 13:14:07;;;;;;;7.95;1.83;;;;;;;;;;7361598;19;20014;-77
2023/12/11 13:16:32;;;;;;;8.98;2.03;;;;;;;;;;7366226;19;20027;-76
2023/12/11 13:18:57;;;;;;;8.98;1.83;;;;;;;;;;7373105;19;20003;-78
2023/12/11 13:21:22;;;;;;;8.63;1.95;;;;;;;;;;7391058;19;20067;-77
2023/12/11 13:23:48;;;;;;;10.15;2.30;;;;;;;;;;7370332;19;19998;-76
2023/12/11 13:26:14;;;;;;;10.38;2.15;;;;;;;;;;7372271;19;20006;-76
2023/12/11 13:28:40;;;;;;;11.43;2.17;;;;;;;;;;7377291;19;20003;-77
2023/12/11 13:31:05;;;;;;;11.98;2.58;;;;;;;;;;7383186;19;20007;-79
2023/12/11 13:33:31;;;;;;;11.98;2.15;;;;;;;;;;7399816;19;20074;-76
2023/12/11 13:35:56;;;;;;;12.32;2.45;;;;;;;;;;7387008;19;20063;-77
2023/12/11 13:38:22;;;;;;;10.68;2.30;;;;;;;;;;7393212;19;20003;-78
2023/12/11 13:40:48;;;;;;;10.88;2.50;;;;;;;;;;7389198;19;19995;-76
2023/12/11 13:43:13;;;;;;;11.70;2.53;;;;;;;;;;7380859;19;19999;-76
2023/12/11 13:45:39;;;;;;;8.18;1.80;;;;;;;;;;7397942;19;20012;-76
2023/12/11 13:48:05;;;;;;;8.55;2.20;;;;;;;;;;7370192;19;20002;-76
2023/12/11 13:50:30;;;;;;;11.15;2.25;;;;;;;;;;7370889;19;20027;-77
2023/12/11 13:52:56;;;;;;;9.45;2.13;;;;;;;;;;7369511;19;20082;-76
2023/12/11 13:55:21;;;;;;;11.27;2.13;;;;;;;;;;7370158;19;20041;-76
2023/12/11 13:57:46;;;;;;;7.25;2.40;;;;;;;;;;7384551;19;20101;-77
2023/12/11 14:00:15;;;;;;;15.40;2.45;;;;;;;;;;7379769;19;20006;-76
2023/12/11 14:02:41;;;;;;;9.77;2.10;;;;;;;;;;7367908;19;19999;-76
2023/12/11 14:05:07;;;;;;;8.55;2.08;;;;;;;;;;7369184;19;20007;-76
2023/12/11 14:07:32;;;;;;;13.27;2.17;;;;;;;;;;7369151;19;20010;-76
2023/12/11 14:09:57;;;;;;;9.93;2.22;;;;;;;;;;7369296;19;19995;-75
2023/12/11 14:12:23;;;;;;;9.57;1.88;;;;;;;;;;7389985;19;20013;-76
2023/12/11 14:14:48;;;;;;;12.00;2.30;;;;;;;;;;7368844;19;20006;-76
2023/12/11 14:17:14;;;;;;;9.90;2.10;;;;;;;;;;7368232;19;20002;-77
2023/12/11 14:19:39;;;;;;;14.52;2.67;;;;;;;;;;7369624;19;20361;-76
2023/12/11 14:22:05;;;;;;;11.38;2.33;;;;;;;;;;7368553;19;20011;-76
2023/12/11 14:24:30;;;;;;;11.70;2.28;;;;;;;;;;7396114;19;20023;-76
2023/12/11 14:26:55;;;;;;;6.88;1.85;;;;;;;;;;7373509;19;20003;-77
2023/12/11 14:29:21;;;;;;;9.07;1.92;;;;;;;;;;7372647;19;20017;-76
2023/12/11 14:31:47;;;;;;;7.22;1.60;;;;;;;;;;7370684;19;20023;-76
2023/12/11 14:34:12;;;;;;;10.77;1.95;;;;;;;;;;7365637;19;20023;-76